createdAt,value
2019-06-07T00:02:18.625Z,13.68
2019-06-07T00:04:51.046Z,14.80
2019-06-07T00:07:22.997Z,11.90
2019-06-07T00:09:55.108Z,12.25
2019-06-07T00:12:27.074Z,11.35
2019-06-07T00:15:00.207Z,13.43
2019-06-07T00:17:32.166Z,14.95
2019-06-07T00:20:08.510Z,14.85
2019-06-07T00:22:39.915Z,16.70
2019-06-07T00:25:15.887Z,10.70
2019-06-07T00:27:47.702Z,14.87
2019-06-07T00:30:50.659Z,12.73
2019-06-07T00:32:55.539Z,15.18
2019-06-07T00:35:27.592Z,15.78
2019-06-07T00:37:59.555Z,11.05
2019-06-07T00:40:32.382Z,11.80
2019-06-07T00:43:04.627Z,11.12
2019-06-07T00:45:36.530Z,13.85
2019-06-07T00:48:08.464Z,11.60
2019-06-07T00:50:40.380Z,11.70
2019-06-07T00:53:17.257Z,14.55
2019-06-07T00:55:46.043Z,9.55
2019-06-07T00:58:21.836Z,13.15
2019-06-07T01:00:51.667Z,14.07
2019-06-07T01:03:25.813Z,13.40
2019-06-07T01:05:57.639Z,13.30
2019-06-07T01:08:30.248Z,8.08
2019-06-07T01:11:02.729Z,20.62
2019-06-07T01:13:35.366Z,10.40
2019-06-07T01:16:07.483Z,16.00
2019-06-07T01:18:46.193Z,13.03
2019-06-07T01:21:15.902Z,11.03
2019-06-07T01:24:08.053Z,13.78
2019-06-07T01:26:26.416Z,12.35
2019-06-07T01:28:57.899Z,14.28
2019-06-07T01:31:31.955Z,11.50
2019-06-07T01:34:04.443Z,16.87
2019-06-07T01:36:36.389Z,17.20
2019-06-07T01:39:08.659Z,11.05
2019-06-07T01:41:40.835Z,11.33
2019-06-07T01:44:13.355Z,14.53
2019-06-07T01:46:45.499Z,13.18
2019-06-07T01:49:17.387Z,14.95
2019-06-07T01:51:49.313Z,13.50
2019-06-07T01:56:55.960Z,18.42
2019-06-07T01:59:31.028Z,14.23
2019-06-07T02:02:01.618Z,17.20
2019-06-07T02:04:33.879Z,16.32
2019-06-07T02:07:05.992Z,15.72
2019-06-07T02:09:37.879Z,16.42
2019-06-07T02:12:25.477Z,15.78
2019-06-07T02:14:52.142Z,15.15
2019-06-07T02:17:30.946Z,16.70
2019-06-07T02:20:02.221Z,15.03
2019-06-07T02:22:34.251Z,15.35
2019-06-07T02:27:41.228Z,13.13
2019-06-07T02:32:47.168Z,18.12
2019-06-07T02:35:19.250Z,13.25
2019-06-07T02:37:51.224Z,12.75
2019-06-07T02:40:24.556Z,12.82
2019-06-07T02:42:57.217Z,17.50
2019-06-07T02:45:36.170Z,12.93
2019-06-07T02:48:04.010Z,19.32
2019-06-07T02:50:38.703Z,16.67
2019-06-07T02:53:10.177Z,19.42
2019-06-07T02:56:33.265Z,17.62
2019-06-07T02:58:15.694Z,18.25
2019-06-07T03:01:09.188Z,18.17
2019-06-07T03:03:24.681Z,13.72
2019-06-07T03:05:57.862Z,14.87
2019-06-07T03:08:35.446Z,10.90
2019-06-07T03:11:06.813Z,13.13
2019-06-07T03:13:40.996Z,12.50
2019-06-07T03:16:15.137Z,16.25
2019-06-07T03:18:55.992Z,14.80
2019-06-07T03:21:33.754Z,11.28
2019-06-07T03:24:05.843Z,11.75
2019-06-07T03:27:30.530Z,12.63
2019-06-07T03:29:12.338Z,13.20
2019-06-07T03:31:47.750Z,12.00
2019-06-07T03:34:17.799Z,13.48
2019-06-07T03:36:49.762Z,14.73
2019-06-07T03:39:21.766Z,14.63
2019-06-07T03:42:05.912Z,12.73
2019-06-07T03:44:28.568Z,13.68
2019-06-07T03:47:01.055Z,13.50
2019-06-07T03:49:38.783Z,13.43
2019-06-07T03:52:06.722Z,10.40
2019-06-07T03:54:39.900Z,12.20
2019-06-07T03:57:11.976Z,11.33
2019-06-07T03:59:43.882Z,10.32
2019-06-07T04:02:15.917Z,14.90
2019-06-07T04:04:47.845Z,14.60
2019-06-07T04:07:19.684Z,12.25
2019-06-07T04:09:51.756Z,13.25
2019-06-07T04:12:23.789Z,16.70
2019-06-07T04:14:55.723Z,16.50
2019-06-07T04:17:31.152Z,19.77
2019-06-07T04:20:01.490Z,15.83
2019-06-07T04:22:38.831Z,16.65
2019-06-07T04:25:12.522Z,19.55
2019-06-07T04:27:44.530Z,12.33
2019-06-07T04:30:26.599Z,13.93
2019-06-07T04:32:58.503Z,13.95
2019-06-07T04:35:31.396Z,17.10
2019-06-07T04:38:04.395Z,17.30
2019-06-07T04:40:39.960Z,15.93
2019-06-07T04:43:11.407Z,13.65
2019-06-07T04:45:50.808Z,11.60
2019-06-07T04:48:18.776Z,16.48
2019-06-07T04:50:52.466Z,17.12
2019-06-07T04:53:24.610Z,15.28
2019-06-07T04:55:57.008Z,14.05
2019-06-07T04:58:30.451Z,11.85
2019-06-07T05:01:03.850Z,10.48
2019-06-07T05:03:38.857Z,9.85
2019-06-07T05:06:09.626Z,9.43
2019-06-07T05:08:43.588Z,14.23
2019-06-07T05:11:15.310Z,16.10
2019-06-07T05:13:47.271Z,8.60
2019-06-07T05:16:19.256Z,11.08
2019-06-07T05:18:51.196Z,15.13
2019-06-07T05:21:23.122Z,11.30
2019-06-07T05:24:06.394Z,15.65
2019-06-07T05:26:30.500Z,11.70
2019-06-07T05:29:02.216Z,9.25
2019-06-07T05:31:35.785Z,12.40
2019-06-07T05:34:07.766Z,11.85
2019-06-07T05:36:44.271Z,13.13
2019-06-07T05:39:13.452Z,8.95
2019-06-07T05:41:45.431Z,9.55
2019-06-07T05:44:17.399Z,18.27
2019-06-07T05:46:49.468Z,10.88
2019-06-07T05:49:22.454Z,10.98
2019-06-07T05:51:54.410Z,8.28
2019-06-07T05:54:26.326Z,12.23
2019-06-07T05:56:58.298Z,10.78
2019-06-07T05:59:30.277Z,8.65
2019-06-07T06:02:21.216Z,10.72
2019-06-07T06:04:39.327Z,8.35
2019-06-07T06:07:11.049Z,11.83
2019-06-07T06:09:43.821Z,7.50
2019-06-07T06:12:34.117Z,6.95
2019-06-07T06:14:52.045Z,7.28
2019-06-07T06:17:24.336Z,7.25
2019-06-07T06:19:56.214Z,6.37
2019-06-07T06:22:28.135Z,6.72
2019-06-07T06:25:30.751Z,3.80
2019-06-07T06:30:12.895Z,4.72
2019-06-07T06:32:52.644Z,5.00
2019-06-07T06:35:19.545Z,3.65
2019-06-07T06:37:53.466Z,3.22
2019-06-07T06:40:26.686Z,6.37
2019-06-07T06:42:58.677Z,4.70
2019-06-07T06:45:30.605Z,5.12
2019-06-07T06:48:02.610Z,2.58
2019-06-07T06:50:34.648Z,6.83
2019-06-07T06:53:52.599Z,5.03
2019-06-07T06:56:25.670Z,4.25
2019-06-07T06:59:35.186Z,4.35
2019-06-07T07:01:31.677Z,10.30
2019-06-07T07:04:11.982Z,13.90
2019-06-07T07:06:38.337Z,11.05
2019-06-07T07:09:10.276Z,8.63
2019-06-07T07:11:55.235Z,4.53
2019-06-07T07:14:16.082Z,6.92
2019-06-07T07:16:53.557Z,8.70
2019-06-07T07:19:21.660Z,6.15
2019-06-07T07:21:55.321Z,7.85
2019-06-07T07:24:28.190Z,11.03
2019-06-07T07:27:00.199Z,12.98
2019-06-07T07:29:32.391Z,16.20
2019-06-07T07:32:04.463Z,14.98
2019-06-07T07:34:37.566Z,14.55
2019-06-07T07:37:09.753Z,18.10
2019-06-07T07:39:41.667Z,9.93
2019-06-07T07:42:20.889Z,10.10
2019-06-07T07:44:49.887Z,14.15
2019-06-07T07:47:21.049Z,9.83
2019-06-07T07:49:56.388Z,13.70
2019-06-07T07:52:26.636Z,10.03
2019-06-07T07:54:58.652Z,14.73
2019-06-07T07:57:30.538Z,11.33
2019-06-07T08:00:36.881Z,8.75
2019-06-07T08:02:36.129Z,9.15
2019-06-07T08:05:25.251Z,9.13
2019-06-07T08:07:42.194Z,13.15
2019-06-07T08:10:14.573Z,11.08
2019-06-07T08:13:08.915Z,8.45
2019-06-07T08:15:20.532Z,7.22
2019-06-07T08:17:58.041Z,7.58
2019-06-07T08:20:26.162Z,7.37
2019-06-07T08:23:01.134Z,4.87
2019-06-07T08:25:32.825Z,4.03
2019-06-07T08:28:05.780Z,5.28
2019-06-07T08:30:58.353Z,6.05
2019-06-07T08:33:25.305Z,6.47
2019-06-07T08:36:06.035Z,5.40
2019-06-07T08:38:27.296Z,4.80
2019-06-07T08:40:56.726Z,6.50
2019-06-07T08:43:25.857Z,5.28
2019-06-07T08:46:02.277Z,4.22
2019-06-07T08:48:31.486Z,4.55
2019-06-07T08:51:08.057Z,8.60
2019-06-07T08:53:37.091Z,5.47
2019-06-07T08:56:10.930Z,5.03
2019-06-07T08:58:42.543Z,7.05
2019-06-07T09:01:14.528Z,6.25
2019-06-07T09:03:46.480Z,4.58
2019-06-07T09:07:01.227Z,3.90
2019-06-07T09:08:53.337Z,4.40
2019-06-07T09:11:25.871Z,4.20
2019-06-07T09:14:02.157Z,3.75
2019-06-07T09:16:31.616Z,4.53
2019-06-07T09:19:10.312Z,7.62
2019-06-07T09:21:38.565Z,2.62
2019-06-07T09:24:11.965Z,2.98
2019-06-07T09:26:44.316Z,5.15
2019-06-07T09:29:16.738Z,5.58
2019-06-07T09:31:53.138Z,3.27
2019-06-07T09:34:22.385Z,3.37
2019-06-07T09:36:57.531Z,4.35
2019-06-07T09:39:28.435Z,3.12
2019-06-07T09:42:01.643Z,3.25
2019-06-07T09:44:34.114Z,6.75
2019-06-07T09:47:22.194Z,4.60
2019-06-07T09:49:39.803Z,4.62
2019-06-07T09:52:11.682Z,5.75
2019-06-07T09:55:06.240Z,4.60
2019-06-07T09:57:18.011Z,7.08
2019-06-07T09:59:50.820Z,5.83
2019-06-07T10:02:22.848Z,5.40
2019-06-07T10:04:54.731Z,4.58
2019-06-07T10:07:31.687Z,6.37
2019-06-07T10:12:34.867Z,3.33
2019-06-07T10:15:08.939Z,6.62
2019-06-07T10:17:41.133Z,4.35
2019-06-07T10:20:13.243Z,2.50
2019-06-07T10:22:45.150Z,3.90
2019-06-07T10:25:17.059Z,4.90
2019-06-07T10:27:49.043Z,4.90
2019-06-07T10:30:22.508Z,5.28
2019-06-07T10:32:54.433Z,7.12
2019-06-07T10:35:26.604Z,2.65
2019-06-07T10:37:58.714Z,5.72
2019-06-07T10:40:30.662Z,5.05
2019-06-07T10:43:03.046Z,4.53
2019-06-07T10:45:35.085Z,3.00
2019-06-07T10:48:07.651Z,2.90
2019-06-07T10:50:39.608Z,4.85
2019-06-07T10:53:12.539Z,4.83
2019-06-07T10:55:45.825Z,4.67
2019-06-07T10:58:17.809Z,5.87
2019-06-07T11:00:49.756Z,8.88
2019-06-07T11:03:21.689Z,8.63
2019-06-07T11:05:53.723Z,3.70
2019-06-07T11:08:25.663Z,4.75
2019-06-07T11:10:57.708Z,3.90
2019-06-07T11:13:29.757Z,7.00
2019-06-07T11:16:01.712Z,3.72
2019-06-07T11:18:33.810Z,4.62
2019-06-07T11:21:08.426Z,4.33
2019-06-07T11:23:40.714Z,4.42
2019-06-07T11:26:12.606Z,6.72
2019-06-07T11:28:44.578Z,3.95
2019-06-07T11:31:16.541Z,9.18
2019-06-07T11:33:48.537Z,4.65
2019-06-07T11:36:21.753Z,106.15
2019-06-07T11:38:53.840Z,19.65
2019-06-07T11:41:26.075Z,4.08
2019-06-07T11:43:58.093Z,4.85
2019-06-07T11:46:30.264Z,9.10
2019-06-07T11:49:02.277Z,3.72
2019-06-07T11:51:34.279Z,7.90
2019-06-07T11:54:07.789Z,6.40
2019-06-07T11:56:39.881Z,4.47
2019-06-07T11:59:13.141Z,3.50
2019-06-07T12:01:45.442Z,6.97
2019-06-07T12:04:32.389Z,3.35
2019-06-07T12:06:51.099Z,3.70
2019-06-07T12:09:23.109Z,3.12
2019-06-07T12:11:54.967Z,5.95
2019-06-07T12:14:26.867Z,20.55
2019-06-07T12:16:58.759Z,20.02
2019-06-07T12:19:30.949Z,4.08
2019-06-07T12:22:02.840Z,7.92
2019-06-07T12:24:34.743Z,18.10
2019-06-07T12:27:06.715Z,20.40
2019-06-07T12:29:38.539Z,7.67
2019-06-07T12:32:11.237Z,11.88
2019-06-07T12:34:43.301Z,7.45
2019-06-07T12:37:18.939Z,7.50
2019-06-07T12:39:48.970Z,9.98
2019-06-07T12:42:21.078Z,3.30
2019-06-07T12:44:53.013Z,2.77
2019-06-07T12:47:25.069Z,2.75
2019-06-07T12:49:57.020Z,3.65
2019-06-07T12:52:28.975Z,16.45
2019-06-07T12:55:01.151Z,7.67
2019-06-07T12:57:33.009Z,5.37
2019-06-07T13:00:13.946Z,3.50
2019-06-07T13:02:47.031Z,2.45
2019-06-07T13:05:19.969Z,3.75
2019-06-07T13:07:52.120Z,3.55
2019-06-07T13:10:24.199Z,7.70
2019-06-07T13:12:56.241Z,2.05
2019-06-07T13:15:28.382Z,3.77
2019-06-07T13:18:00.591Z,5.12
2019-06-07T13:20:32.634Z,5.37
2019-06-07T13:23:04.705Z,5.60
2019-06-07T13:25:46.363Z,7.28
2019-06-07T13:28:10.466Z,26.65
2019-06-07T13:30:42.383Z,4.12
2019-06-07T13:33:14.327Z,4.97
2019-06-07T13:35:46.969Z,3.87
2019-06-07T13:38:26.698Z,3.15
2019-06-07T13:41:04.642Z,3.75
2019-06-07T13:43:36.469Z,4.37
2019-06-07T13:46:12.679Z,4.35
2019-06-07T13:48:42.108Z,4.35
2019-06-07T13:51:14.042Z,6.55
2019-06-07T13:53:45.851Z,6.53
2019-06-07T13:56:17.834Z,6.62
2019-06-07T13:58:49.798Z,3.33
2019-06-07T14:01:22.460Z,4.35
2019-06-07T14:03:54.785Z,8.30
2019-06-07T14:06:28.156Z,14.35
2019-06-07T14:09:00.512Z,11.55
2019-06-07T14:11:49.510Z,3.90
2019-06-07T14:14:07.892Z,2.87
2019-06-07T14:16:39.968Z,8.95
2019-06-07T14:19:11.830Z,4.50
2019-06-07T14:21:44.630Z,3.85
2019-06-07T14:24:16.450Z,5.80
2019-06-07T14:27:06.609Z,4.42
2019-06-07T14:29:39.537Z,5.22
2019-06-07T14:32:11.510Z,3.17
2019-06-07T14:34:43.459Z,5.78
2019-06-07T14:37:15.438Z,4.40
2019-06-07T14:39:47.409Z,2.98
2019-06-07T14:42:19.353Z,3.10
2019-06-07T14:44:51.209Z,6.78
2019-06-07T14:47:40.020Z,3.92
2019-06-07T14:50:12.897Z,3.00
2019-06-07T14:52:44.802Z,8.05
2019-06-07T14:55:16.890Z,4.85
2019-06-07T14:57:49.055Z,10.03
2019-06-07T15:00:22.769Z,6.53
2019-06-07T15:02:54.675Z,6.20
2019-06-07T15:05:31.339Z,9.20
2019-06-07T15:08:05.249Z,9.98
2019-06-07T15:10:37.225Z,8.95
2019-06-07T15:13:09.269Z,8.93
2019-06-07T15:15:41.604Z,5.53
2019-06-07T15:18:13.527Z,5.15
2019-06-07T15:20:45.401Z,6.75
2019-06-07T15:23:17.325Z,4.85
2019-06-07T15:25:49.145Z,11.30
2019-06-07T15:28:21.520Z,3.77
2019-06-07T15:30:53.383Z,10.48
2019-06-07T15:33:27.773Z,3.95
2019-06-07T15:35:59.748Z,5.50
2019-06-07T15:38:33.090Z,16.00
2019-06-07T15:41:05.186Z,23.67
2019-06-07T15:43:37.519Z,5.80
2019-06-07T15:46:09.550Z,10.63
2019-06-07T15:48:41.541Z,10.58
2019-06-07T15:51:13.398Z,17.05
2019-06-07T15:53:45.310Z,6.28
2019-06-07T15:56:17.185Z,24.67
2019-06-07T15:58:49.182Z,17.70
2019-06-07T16:01:21.055Z,5.33
2019-06-07T16:03:53.138Z,6.83
2019-06-07T16:06:25.183Z,14.93
2019-06-07T16:08:57.250Z,9.38
2019-06-07T16:11:29.285Z,5.75
2019-06-07T16:14:01.497Z,7.80
2019-06-07T16:16:35.045Z,7.12
2019-06-07T16:19:07.327Z,37.90
2019-06-07T16:21:39.541Z,20.65
2019-06-07T16:24:11.548Z,18.45
2019-06-07T16:26:44.563Z,32.03
2019-06-07T16:29:16.759Z,12.73
2019-06-07T16:31:48.722Z,9.93
2019-06-07T16:34:20.724Z,11.03
2019-06-07T16:36:52.686Z,5.47
2019-06-07T16:39:24.669Z,8.13
2019-06-07T16:41:56.860Z,26.17
2019-06-07T16:44:30.462Z,14.78
2019-06-07T16:47:02.579Z,13.48
2019-06-07T16:49:34.711Z,47.23
2019-06-07T16:52:06.683Z,30.57
2019-06-07T16:54:39.331Z,24.65
2019-06-07T16:57:11.273Z,21.50
2019-06-07T16:59:49.075Z,9.83
2019-06-07T17:02:20.014Z,5.62
2019-06-07T17:04:52.012Z,5.28
2019-06-07T17:07:23.829Z,5.58
2019-06-07T17:09:55.801Z,10.60
2019-06-07T17:12:27.765Z,10.32
2019-06-07T17:14:59.734Z,8.85
2019-06-07T17:17:31.604Z,8.00
2019-06-07T17:20:04.807Z,9.10
2019-06-07T17:22:37.300Z,14.63
2019-06-07T17:25:11.678Z,12.60
2019-06-07T17:27:43.977Z,6.35
2019-06-07T17:30:16.889Z,35.95
2019-06-07T17:32:58.501Z,24.20
2019-06-07T17:35:22.667Z,17.85
2019-06-07T17:37:54.706Z,37.00
2019-06-07T17:40:26.754Z,16.30
2019-06-07T17:42:58.755Z,16.30
2019-06-07T17:45:31.021Z,8.13
2019-06-07T17:48:03.104Z,8.23
2019-06-07T17:50:35.294Z,5.20
2019-06-07T17:53:07.943Z,6.47
2019-06-07T17:55:41.959Z,25.62
2019-06-07T17:58:13.983Z,24.63
2019-06-07T18:00:58.789Z,54.55
2019-06-07T18:03:30.760Z,11.68
2019-06-07T18:06:04.516Z,5.65
2019-06-07T18:08:36.803Z,4.90
2019-06-07T18:11:08.800Z,15.98
2019-06-07T18:13:41.177Z,14.75
2019-06-07T18:16:13.306Z,8.40
2019-06-07T18:18:46.875Z,7.12
2019-06-07T18:21:19.692Z,18.80
2019-06-07T18:23:52.998Z,12.50
2019-06-07T18:26:25.418Z,12.53
2019-06-07T18:28:59.296Z,11.45
2019-06-07T18:31:32.048Z,21.20
2019-06-07T18:34:03.932Z,14.38
2019-06-07T18:36:37.517Z,12.65
2019-06-07T18:39:09.989Z,19.67
2019-06-07T18:41:43.488Z,36.35
2019-06-07T18:44:21.544Z,45.70
2019-06-07T18:46:50.136Z,34.95
2019-06-07T18:49:22.251Z,20.68
2019-06-07T18:52:15.265Z,30.40
2019-06-07T18:54:48.722Z,21.97
2019-06-07T18:57:20.968Z,28.00
2019-06-07T18:59:52.863Z,16.15
2019-06-07T19:02:25.874Z,19.40
2019-06-07T19:04:59.823Z,25.75
2019-06-07T19:07:31.693Z,46.18
2019-06-07T19:10:11.344Z,33.95
2019-06-07T19:12:44.678Z,31.57
2019-06-07T19:15:19.514Z,38.78
2019-06-07T19:17:52.164Z,32.80
2019-06-07T19:20:24.404Z,44.23
2019-06-07T19:22:56.574Z,24.52
2019-06-07T19:25:28.563Z,18.60
2019-06-07T19:28:01.097Z,13.22
2019-06-07T19:30:33.234Z,11.78
2019-06-07T19:33:48.458Z,9.45
2019-06-07T19:36:08.688Z,7.42
2019-06-07T19:38:40.803Z,14.90
2019-06-07T19:41:19.648Z,20.75
2019-06-07T19:43:48.153Z,21.68
2019-06-07T19:46:20.087Z,34.70
2019-06-07T19:48:52.506Z,25.15
2019-06-07T19:51:24.527Z,28.15
2019-06-07T19:53:57.106Z,20.37
2019-06-07T19:56:29.112Z,19.15
2019-06-07T19:59:01.815Z,15.78
2019-06-07T20:01:34.287Z,19.12
2019-06-07T20:04:06.269Z,24.18
2019-06-07T20:06:38.330Z,23.95
2019-06-07T20:09:10.356Z,23.50
2019-06-07T20:11:42.397Z,22.17
2019-06-07T20:14:14.532Z,20.50
2019-06-07T20:16:46.423Z,18.37
2019-06-07T20:19:18.625Z,19.20
2019-06-07T20:21:50.605Z,24.43
2019-06-07T20:24:27.409Z,22.30
2019-06-07T20:26:56.238Z,16.80
2019-06-07T20:29:30.129Z,19.60
2019-06-07T20:32:02.514Z,16.45
2019-06-07T20:34:34.629Z,15.95
2019-06-07T20:37:07.729Z,12.18
2019-06-07T20:39:40.295Z,9.30
2019-06-07T20:42:12.223Z,17.40
2019-06-07T20:47:52.154Z,14.40
2019-06-07T20:50:24.052Z,14.73
2019-06-07T20:52:55.956Z,13.70
2019-06-07T20:55:27.862Z,21.35
2019-06-07T20:58:01.185Z,15.45
2019-06-07T21:00:33.315Z,18.37
2019-06-07T21:03:07.246Z,28.50
2019-06-07T21:05:39.394Z,22.85
2019-06-07T21:08:12.875Z,24.15
2019-06-07T21:10:45.198Z,27.58
2019-06-07T21:13:17.171Z,19.70
2019-06-07T21:15:49.494Z,24.60
2019-06-07T21:18:21.673Z,22.93
2019-06-07T21:20:53.763Z,42.73
2019-06-07T21:23:25.653Z,41.18
2019-06-07T21:25:58.744Z,36.65
2019-06-07T21:28:30.798Z,28.55
2019-06-07T21:31:03.786Z,46.28
2019-06-07T21:33:36.361Z,52.00
2019-06-07T21:36:09.706Z,42.55
2019-06-07T21:38:41.694Z,31.40
2019-06-07T21:41:13.669Z,22.15
2019-06-07T21:43:45.653Z,27.10
2019-06-07T21:46:20.441Z,34.27
2019-06-07T21:48:51.524Z,20.30
2019-06-07T21:51:23.564Z,19.95
2019-06-07T21:53:57.108Z,29.92
2019-06-07T21:56:29.165Z,26.05
2019-06-07T21:59:01.129Z,36.53
2019-06-07T22:01:33.774Z,38.02
2019-06-07T22:04:07.339Z,37.28
2019-06-07T22:06:39.606Z,24.47
2019-06-07T22:09:12.372Z,29.60
2019-06-07T22:11:44.447Z,44.18
2019-06-07T22:14:16.339Z,57.55
2019-06-07T22:16:48.268Z,48.75
2019-06-07T22:19:20.096Z,33.05
2019-06-07T22:22:02.234Z,26.70
2019-06-07T22:24:25.803Z,21.40
2019-06-07T22:26:57.705Z,18.90
2019-06-07T22:29:29.630Z,20.92
2019-06-07T22:32:01.675Z,19.27
2019-06-07T22:34:33.657Z,22.65
2019-06-07T22:37:07.049Z,15.20
2019-06-07T22:39:39.257Z,18.20
2019-06-07T22:42:13.507Z,19.35
2019-06-07T22:44:45.539Z,20.52
2019-06-07T22:47:18.319Z,18.23
2019-06-07T22:49:50.466Z,24.37
2019-06-07T22:52:22.501Z,19.95
2019-06-07T22:54:54.469Z,19.35
2019-06-07T22:57:29.198Z,19.67
2019-06-07T23:00:08.590Z,19.77
2019-06-07T23:02:35.146Z,20.72
2019-06-07T23:05:08.430Z,20.55
2019-06-07T23:07:40.604Z,22.77
2019-06-07T23:10:13.390Z,21.02
2019-06-07T23:12:45.469Z,22.30
2019-06-07T23:15:18.142Z,19.87
2019-06-07T23:17:51.366Z,25.32
2019-06-07T23:20:23.507Z,21.87
2019-06-07T23:23:01.791Z,20.75
2019-06-07T23:25:33.699Z,25.27
2019-06-07T23:28:05.828Z,23.15
2019-06-07T23:30:37.935Z,19.32
2019-06-07T23:33:14.824Z,23.77
2019-06-07T23:35:58.829Z,25.20
2019-06-07T23:38:30.881Z,22.93
2019-06-07T23:41:17.634Z,21.25
2019-06-07T23:43:55.761Z,20.70
2019-06-07T23:47:10.890Z,23.27
2019-06-07T23:49:36.840Z,20.32
2019-06-07T23:52:11.329Z,22.98
2019-06-07T23:54:44.904Z,25.15
2019-06-07T23:57:18.866Z,33.70
2019-06-07T23:59:50.704Z,25.30
